Philo, Illinois
Current Conditions -  °F | °C
As of 5:53 AM on Monday 20 Oct 2014 (Local Time) from KCMI Reporting Station
Overcast Overcast  
Wind Chill: 51°   Ceiling: 6000
Heat Index: 51°   Visibility: 10mi
Dew Point: 47°   Wind: 9mph
Humidity: 86%   Direction: 200°SSW
Pressure: 29.9"   Gusts: NA
Location:  40.01°N, 88.16°W
Report Text: KCMI 201053Z 20008KT 10SM OVC060 11/08 A2990 RMK AO2 SLP127 T01060083 $
Loading
Personal Weather Stations






























Interactive Weather Map
Tropical Storm Tracking
New forecast layout! Learn more

10-Day Weather Forecast

Advertisements
Track Severe Weather on mobile